Time;durP1;ratioP1;P1;durP2;ratioP2;P2;SDS_P1;SDS_P2;PMS_P1;PMS_P2;Temp;Humidity;BMP_temperature;BMP_pressure;BME280_temperature;BME280_humidity;BME280_pressure;Samples;Min_cycle;Max_cycle;Signal;HPM_P1;HPM_P2
2021/12/24 00:00:07;;;;;;;5.45;3.00;;;;;;;;;;5065818;28;20021;-57
2021/12/24 00:02:33;;;;;;;4.05;2.65;;;;;;;;;;5066648;28;20039;-57
2021/12/24 00:04:59;;;;;;;4.63;2.78;;;;;;;;;;5066158;28;20131;-57
2021/12/24 00:07:25;;;;;;;4.75;2.85;;;;;;;;;;5066249;28;20111;-57
2021/12/24 00:09:51;;;;;;;4.35;2.85;;;;;;;;;;5065861;28;20038;-57
2021/12/24 00:12:20;;;;;;;4.40;2.63;;;;;;;;;;5065702;28;20032;-57
2021/12/24 00:14:51;;;;;;;4.35;2.92;;;;;;;;;;5066095;28;20106;-57
2021/12/24 00:17:23;;;;;;;4.72;3.00;;;;;;;;;;5064754;28;20461;-57
2021/12/24 00:36:17;;;;;;;5.75;3.92;;;;;;;;;;5065384;28;20036;-57
2021/12/24 00:38:43;;;;;;;6.28;3.70;;;;;;;;;;5065265;28;20088;-57
2021/12/24 00:41:09;;;;;;;5.85;3.78;;;;;;;;;;5065872;28;20078;-57
2021/12/24 00:43:35;;;;;;;5.75;3.72;;;;;;;;;;5065796;28;20024;-57
2021/12/24 00:46:01;;;;;;;5.00;3.60;;;;;;;;;;5065783;28;20036;-57
2021/12/24 00:48:27;;;;;;;5.60;3.53;;;;;;;;;;5065522;28;20412;-57
2021/12/24 00:55:59;;;;;;;6.65;3.97;;;;;;;;;;5065342;28;20056;-57
2021/12/24 00:58:25;;;;;;;5.80;3.85;;;;;;;;;;5065056;28;20109;-57
2021/12/24 01:00:51;;;;;;;5.35;3.50;;;;;;;;;;5065051;28;20547;-57
2021/12/24 01:03:18;;;;;;;6.38;4.05;;;;;;;;;;5065051;28;20024;-57
2021/12/24 01:05:44;;;;;;;5.18;3.53;;;;;;;;;;5064924;28;20495;-57
2021/12/24 01:08:10;;;;;;;5.80;3.63;;;;;;;;;;5065441;28;20025;-57
2021/12/24 01:10:40;;;;;;;6.10;3.70;;;;;;;;;;5065162;28;20036;-57
2021/12/24 01:13:07;;;;;;;6.38;3.70;;;;;;;;;;5064804;28;20108;-57
2021/12/24 01:15:38;;;;;;;5.35;3.58;;;;;;;;;;5047074;28;20078;-57
2021/12/24 01:18:13;;;;;;;5.82;3.72;;;;;;;;;;5064680;28;20016;-57
2021/12/24 01:20:45;;;;;;;6.00;3.80;;;;;;;;;;5065478;28;20432;-57
2021/12/24 01:25:49;;;;;;;5.53;3.40;;;;;;;;;;5065547;28;20412;-57
2021/12/24 01:44:41;;;;;;;6.15;3.40;;;;;;;;;;5065087;28;20078;-57
2021/12/24 01:47:09;;;;;;;4.88;3.47;;;;;;;;;;5065201;28;20029;-57
2021/12/24 01:49:35;;;;;;;6.13;3.42;;;;;;;;;;5064580;28;20460;-57
2021/12/24 01:52:02;;;;;;;5.03;3.25;;;;;;;;;;5064251;28;20050;-57
2021/12/24 01:54:29;;;;;;;5.13;3.33;;;;;;;;;;5064803;28;20013;-57
2021/12/24 01:56:55;;;;;;;4.63;3.13;;;;;;;;;;5064684;28;20411;-57
2021/12/24 01:59:21;;;;;;;6.68;3.53;;;;;;;;;;5064428;28;20558;-57
2021/12/24 02:01:49;;;;;;;6.15;3.42;;;;;;;;;;5064282;28;20406;-57
2021/12/24 02:04:16;;;;;;;4.78;3.17;;;;;;;;;;5064465;28;20028;-57
2021/12/24 02:06:42;;;;;;;5.93;3.58;;;;;;;;;;5065213;28;20029;-57
2021/12/24 02:09:08;;;;;;;5.97;3.55;;;;;;;;;;5064686;28;20032;-57
2021/12/24 02:11:37;;;;;;;4.45;3.10;;;;;;;;;;5064130;28;20029;-57
2021/12/24 02:14:05;;;;;;;3.95;2.83;;;;;;;;;;5064378;28;20053;-57
2021/12/24 02:30:02;;;;;;;;;;;;;;;;;;5063104;28;20036;-57
2021/12/24 02:32:28;;;;;;;4.72;3.40;;;;;;;;;;5064038;28;19913;-57
2021/12/24 02:34:54;;;;;;;5.82;3.35;;;;;;;;;;5046196;28;20411;-57
2021/12/24 02:37:20;;;;;;;6.35;3.67;;;;;;;;;;5063733;28;20096;-57
2021/12/24 02:39:47;;;;;;;5.40;3.28;;;;;;;;;;5064209;28;20123;-57
2021/12/24 02:42:15;;;;;;;5.78;3.35;;;;;;;;;;5064017;28;20025;-57
2021/12/24 02:44:42;;;;;;;4.13;2.58;;;;;;;;;;5064480;28;20058;-56
2021/12/24 02:55:08;;;;;;;4.93;3.03;;;;;;;;;;5065103;28;20218;-57
2021/12/24 02:57:38;;;;;;;4.68;3.33;;;;;;;;;;5065247;28;20020;-57
2021/12/24 03:00:14;;;;;;;4.90;2.83;;;;;;;;;;5067082;28;20044;-57
2021/12/24 03:02:40;;;;;;;4.93;3.17;;;;;;;;;;5068365;28;20039;-57
2021/12/24 03:05:07;;;;;;;4.65;2.95;;;;;;;;;;5067028;28;20039;-57
2021/12/24 03:07:33;;;;;;;4.95;3.30;;;;;;;;;;5067382;28;20098;-57
2021/12/24 03:10:00;;;;;;;4.03;2.97;;;;;;;;;;5067248;28;20518;-57
2021/12/24 03:12:28;;;;;;;4.13;2.72;;;;;;;;;;5066798;28;20565;-56
2021/12/24 03:14:54;;;;;;;2.65;2.10;;;;;;;;;;5067262;28;20027;-57
2021/12/24 03:17:23;;;;;;;3.90;2.58;;;;;;;;;;5067200;28;20118;-57
2021/12/24 03:19:53;;;;;;;3.47;2.60;;;;;;;;;;5067118;28;20021;-57
2021/12/24 03:25:13;;;;;;;3.92;2.65;;;;;;;;;;5051160;28;20028;-57
2021/12/24 03:27:40;;;;;;;4.00;2.60;;;;;;;;;;5067620;28;20051;-57
2021/12/24 03:30:07;;;;;;;4.05;2.50;;;;;;;;;;5066202;28;20033;-57
2021/12/24 03:32:33;;;;;;;3.05;2.42;;;;;;;;;;5067019;28;20033;-57
2021/12/24 03:34:59;;;;;;;4.85;2.92;;;;;;;;;;5066870;28;20082;-57
2021/12/24 03:37:25;;;;;;;5.05;2.60;;;;;;;;;;5065674;28;20024;-57
2021/12/24 03:39:51;;;;;;;4.22;2.67;;;;;;;;;;5066563;28;20047;-57
2021/12/24 03:42:18;;;;;;;4.28;2.67;;;;;;;;;;5066581;28;20029;-57
2021/12/24 03:44:52;;;;;;;3.85;2.67;;;;;;;;;;5066648;28;20028;-57
2021/12/24 03:47:20;;;;;;;4.03;2.85;;;;;;;;;;5066408;28;20479;-57
2021/12/24 03:55:00;;;;;;;4.18;2.95;;;;;;;;;;5066416;28;20392;-57
2021/12/24 03:57:27;;;;;;;3.15;2.47;;;;;;;;;;5066040;28;20039;-57
2021/12/24 03:59:54;;;;;;;4.35;2.63;;;;;;;;;;5066357;28;20017;-56
2021/12/24 04:02:20;;;;;;;4.13;2.85;;;;;;;;;;5066258;28;20422;-57
2021/12/24 04:04:46;;;;;;;5.45;3.35;;;;;;;;;;5066459;28;20457;-57
2021/12/24 04:07:13;;;;;;;3.85;2.42;;;;;;;;;;5065921;28;20434;-57
2021/12/24 04:09:47;;;;;;;4.13;2.42;;;;;;;;;;5065778;28;20028;-57
2021/12/24 04:12:13;;;;;;;;;;;;;;;;;;5066160;28;20068;-57
2021/12/24 04:14:40;;;;;;;3.08;2.22;;;;;;;;;;5066710;28;19960;-57
2021/12/24 04:17:08;;;;;;;2.50;2.10;;;;;;;;;;5065788;28;20028;-57
2021/12/24 04:24:53;;;;;;;3.35;1.98;;;;;;;;;;5065937;28;20051;-57
2021/12/24 04:27:20;;;;;;;2.55;1.90;;;;;;;;;;5065666;28;20115;-57
2021/12/24 04:29:46;;;;;;;3.17;2.20;;;;;;;;;;5065283;28;20067;-57
2021/12/24 04:32:18;;;;;;;2.85;1.95;;;;;;;;;;5065487;28;20107;-57
2021/12/24 04:34:49;;;;;;;3.67;2.03;;;;;;;;;;5047739;28;20454;-57
2021/12/24 05:02:26;;;;;;;2.83;1.85;;;;;;;;;;5065229;28;20412;-57
2021/12/24 05:04:55;;;;;;;4.25;2.10;;;;;;;;;;5065142;28;20108;-57
2021/12/24 05:09:48;;;;;;;2.60;1.67;;;;;;;;;;5064881;28;20123;-57
2021/12/24 05:12:15;;;;;;;1.95;1.55;;;;;;;;;;5065011;28;20143;-57
2021/12/24 05:14:41;;;;;;;3.33;1.98;;;;;;;;;;5065719;28;20111;-57
2021/12/24 05:17:25;;;;;;;3.97;2.60;;;;;;;;;;5065299;28;20092;-57
2021/12/24 05:22:35;;;;;;;3.35;2.00;;;;;;;;;;5064577;28;20123;-57
2021/12/24 05:25:02;;;;;;;3.72;2.40;;;;;;;;;;5065074;28;20898;-57
2021/12/24 05:27:29;;;;;;;4.10;2.53;;;;;;;;;;5064634;28;20077;-57
2021/12/24 05:29:55;;;;;;;4.25;2.60;;;;;;;;;;5064129;28;20043;-57
2021/12/24 05:32:22;;;;;;;3.60;2.60;;;;;;;;;;5064924;28;20044;-57
2021/12/24 05:34:48;;;;;;;3.90;2.30;;;;;;;;;;5064791;28;20073;-57
2021/12/24 05:37:15;;;;;;;3.72;2.50;;;;;;;;;;5064090;28;20093;-57
2021/12/24 05:39:42;;;;;;;3.60;2.50;;;;;;;;;;5065119;28;20028;-57
2021/12/24 05:42:09;;;;;;;3.53;2.40;;;;;;;;;;5065030;28;20101;-57
2021/12/24 05:44:35;;;;;;;4.85;2.45;;;;;;;;;;5063456;28;20025;-57
2021/12/24 05:47:02;;;;;;;4.88;2.67;;;;;;;;;;5065080;28;20051;-57
2021/12/24 05:49:29;;;;;;;4.45;2.70;;;;;;;;;;5064938;28;20020;-57
2021/12/24 05:51:55;;;;;;;4.97;2.90;;;;;;;;;;5064007;28;20047;-57
2021/12/24 05:54:22;;;;;;;4.63;2.83;;;;;;;;;;5064454;28;20020;-57
2021/12/24 05:56:48;;;;;;;4.63;3.13;;;;;;;;;;5064539;28;20135;-57
2021/12/24 05:59:15;;;;;;;4.53;2.35;;;;;;;;;;5064111;28;20423;-57
2021/12/24 06:01:42;;;;;;;4.32;2.60;;;;;;;;;;5064921;28;20035;-57
2021/12/24 06:04:08;;;;;;;3.75;2.50;;;;;;;;;;5064941;28;20031;-56
2021/12/24 06:06:35;;;;;;;4.13;2.63;;;;;;;;;;5064092;28;20457;-57
2021/12/24 06:09:02;;;;;;;3.85;2.58;;;;;;;;;;5064407;28;20029;-57
2021/12/24 06:11:30;;;;;;;4.68;2.40;;;;;;;;;;5064238;28;20028;-57
2021/12/24 06:13:56;;;;;;;5.72;3.22;;;;;;;;;;5064162;28;20067;-57
2021/12/24 06:16:22;;;;;;;4.85;3.10;;;;;;;;;;5064231;28;20551;-57
2021/12/24 06:18:48;;;;;;;5.20;3.15;;;;;;;;;;5064060;28;20036;-57
2021/12/24 06:21:15;;;;;;;5.50;3.42;;;;;;;;;;5063662;28;20056;-57
2021/12/24 06:23:43;;;;;;;5.15;3.20;;;;;;;;;;5065520;28;20576;-57
2021/12/24 06:26:10;;;;;;;5.85;3.80;;;;;;;;;;5065094;28;20098;-57
2021/12/24 06:28:37;;;;;;;5.68;3.55;;;;;;;;;;5064329;28;20469;-57
2021/12/24 06:31:03;;;;;;;5.45;3.50;;;;;;;;;;5063568;28;20035;-56
2021/12/24 06:33:30;;;;;;;5.03;3.30;;;;;;;;;;5066831;28;20485;-57
2021/12/24 06:35:58;;;;;;;4.80;3.45;;;;;;;;;;5067577;28;20082;-57
2021/12/24 06:38:24;;;;;;;6.65;4.10;;;;;;;;;;5067695;28;20035;-57
2021/12/24 06:40:50;;;;;;;6.97;4.13;;;;;;;;;;5067262;28;20527;-57
2021/12/24 06:43:17;;;;;;;6.63;4.25;;;;;;;;;;5067634;28;20032;-57
2021/12/24 06:45:43;;;;;;;7.80;4.07;;;;;;;;;;5067684;28;20404;-56
2021/12/24 06:48:11;;;;;;;8.75;3.65;;;;;;;;;;5067977;28;20051;-57
2021/12/24 06:50:37;;;;;;;5.05;3.22;;;;;;;;;;5067904;28;20389;-57
2021/12/24 06:53:03;;;;;;;5.18;3.22;;;;;;;;;;5067318;28;20024;-57
2021/12/24 06:55:30;;;;;;;3.90;2.83;;;;;;;;;;5067394;28;20028;-57
2021/12/24 06:57:57;;;;;;;5.13;3.58;;;;;;;;;;5067799;28;20039;-57
2021/12/24 07:00:24;;;;;;;4.53;3.00;;;;;;;;;;5067272;28;20051;-57
2021/12/24 07:02:51;;;;;;;4.75;3.40;;;;;;;;;;5067306;28;20052;-57
2021/12/24 07:05:18;;;;;;;5.80;3.70;;;;;;;;;;5067162;28;20036;-57
2021/12/24 07:07:44;;;;;;;7.20;4.00;;;;;;;;;;5067507;28;20025;-57
2021/12/24 07:10:11;;;;;;;6.05;4.10;;;;;;;;;;5067470;28;20039;-57
2021/12/24 07:12:37;;;;;;;5.47;3.47;;;;;;;;;;5067499;28;20021;-57
2021/12/24 07:15:04;;;;;;;6.43;4.30;;;;;;;;;;5067140;28;20071;-56
2021/12/24 07:17:30;;;;;;;6.60;4.35;;;;;;;;;;5067289;28;20029;-57
2021/12/24 07:19:56;;;;;;;6.05;4.07;;;;;;;;;;5066963;28;20025;-57
2021/12/24 07:22:22;;;;;;;8.45;4.25;;;;;;;;;;5066972;28;20032;-57
2021/12/24 07:24:48;;;;;;;7.05;4.25;;;;;;;;;;5066136;28;20040;-57
2021/12/24 07:27:14;;;;;;;8.80;5.05;;;;;;;;;;5062875;28;20037;-57
2021/12/24 07:29:40;;;;;;;8.60;4.70;;;;;;;;;;5070725;28;20033;-57
2021/12/24 07:32:06;;;;;;;8.35;4.68;;;;;;;;;;5086793;28;20530;-56
2021/12/24 07:34:32;;;;;;;6.65;4.18;;;;;;;;;;5071567;28;20024;-57
2021/12/24 07:36:58;;;;;;;7.63;4.53;;;;;;;;;;5068259;28;20103;-57
2021/12/24 07:39:24;;;;;;;6.57;4.10;;;;;;;;;;5067986;28;20448;-57
2021/12/24 07:41:52;;;;;;;5.97;4.10;;;;;;;;;;5068245;28;20035;-57
2021/12/24 07:44:19;;;;;;;6.28;3.88;;;;;;;;;;5049742;28;20566;-57
2021/12/24 07:46:53;;;;;;;5.93;4.00;;;;;;;;;;5085376;28;20028;-57
2021/12/24 07:54:47;;;;;;;7.28;4.45;;;;;;;;;;5075144;28;20036;-57
2021/12/24 07:57:15;;;;;;;6.15;3.47;;;;;;;;;;5087775;28;20059;-57
2021/12/24 07:59:42;;;;;;;5.97;3.53;;;;;;;;;;5088989;28;20030;-57
2021/12/24 08:02:14;;;;;;;5.35;3.35;;;;;;;;;;5070360;28;20059;-57
2021/12/24 08:04:42;;;;;;;5.20;3.72;;;;;;;;;;5072146;28;20032;-59
2021/12/24 08:07:08;;;;;;;5.18;3.10;;;;;;;;;;5048927;28;20606;-57
2021/12/24 08:09:37;;;;;;;5.28;3.35;;;;;;;;;;5053786;28;20391;-57
2021/12/24 08:12:06;;;;;;;5.78;3.47;;;;;;;;;;5067290;28;20613;-57
2021/12/24 08:14:32;;;;;;;4.80;2.92;;;;;;;;;;5067581;28;20028;-57
2021/12/24 08:16:59;;;;;;;4.65;3.30;;;;;;;;;;5067498;28;20388;-57
2021/12/24 08:19:25;;;;;;;4.57;3.35;;;;;;;;;;5067248;28;20020;-57
2021/12/24 08:21:51;;;;;;;6.53;3.60;;;;;;;;;;5067250;28;20467;-57
2021/12/24 08:24:17;;;;;;;4.25;2.90;;;;;;;;;;5066836;28;20041;-56
2021/12/24 08:26:44;;;;;;;3.70;2.55;;;;;;;;;;5067267;28;20036;-56
2021/12/24 08:29:10;;;;;;;4.03;2.65;;;;;;;;;;5067976;28;20073;-56
2021/12/24 08:31:36;;;;;;;4.88;2.17;;;;;;;;;;5066870;28;20024;-56
2021/12/24 08:34:03;;;;;;;7.28;3.15;;;;;;;;;;5066085;28;20040;-56
2021/12/24 08:36:30;;;;;;;5.20;2.83;;;;;;;;;;5065730;28;20031;-56
2021/12/24 08:38:56;;;;;;;4.95;2.47;;;;;;;;;;5066524;28;20047;-56
2021/12/24 08:41:24;;;;;;;3.72;2.60;;;;;;;;;;5066081;28;20044;-57
2021/12/24 08:43:51;;;;;;;5.53;3.15;;;;;;;;;;5066321;28;20032;-56
2021/12/24 08:46:17;;;;;;;3.58;2.40;;;;;;;;;;5065957;28;20541;-57
2021/12/24 08:48:43;;;;;;;4.38;2.75;;;;;;;;;;5061852;28;20020;-57
2021/12/24 08:51:11;;;;;;;4.55;2.83;;;;;;;;;;5053106;28;20044;-57
2021/12/24 08:53:38;;;;;;;4.10;2.30;;;;;;;;;;5067083;28;20028;-57
2021/12/24 08:56:04;;;;;;;4.20;2.25;;;;;;;;;;5065438;28;20020;-56
2021/12/24 08:58:32;;;;;;;3.95;2.72;;;;;;;;;;5066447;28;20032;-57
2021/12/24 09:00:58;;;;;;;5.30;3.00;;;;;;;;;;5066276;28;20013;-57
2021/12/24 09:03:25;;;;;;;5.57;2.88;;;;;;;;;;5065845;28;20102;-57
2021/12/24 09:05:51;;;;;;;5.03;2.88;;;;;;;;;;5065804;28;20029;-56
2021/12/24 09:08:18;;;;;;;4.30;2.90;;;;;;;;;;5065659;28;20562;-57
2021/12/24 09:10:44;;;;;;;7.70;3.47;;;;;;;;;;5065977;28;20024;-57
2021/12/24 09:13:11;;;;;;;4.97;3.22;;;;;;;;;;5066582;28;20062;-56
2021/12/24 09:15:39;;;;;;;6.30;3.38;;;;;;;;;;5066164;28;20066;-56
2021/12/24 09:18:05;;;;;;;4.68;3.38;;;;;;;;;;5065481;28;20031;-56
2021/12/24 09:20:33;;;;;;;6.10;3.42;;;;;;;;;;5065904;28;20078;-55
2021/12/24 09:23:01;;;;;;;8.85;3.80;;;;;;;;;;5066314;28;20099;-57
2021/12/24 09:25:29;;;;;;;4.30;3.08;;;;;;;;;;5065848;28;20031;-56
2021/12/24 09:27:55;;;;;;;5.35;3.58;;;;;;;;;;5066100;28;20032;-56
2021/12/24 09:30:23;;;;;;;4.80;3.35;;;;;;;;;;5065200;28;20039;-56
2021/12/24 09:32:50;;;;;;;5.93;4.00;;;;;;;;;;5073312;28;20028;-56
2021/12/24 09:35:17;;;;;;;6.45;3.97;;;;;;;;;;5073343;28;20150;-56
2021/12/24 09:37:43;;;;;;;9.73;5.30;;;;;;;;;;5065618;28;20059;-56
2021/12/24 09:40:10;;;;;;;11.13;6.57;;;;;;;;;;5066183;28;20055;-57
2021/12/24 09:42:37;;;;;;;10.02;5.72;;;;;;;;;;5065465;28;20032;-56
2021/12/24 09:45:05;;;;;;;12.18;6.90;;;;;;;;;;5065579;28;20024;-56
2021/12/24 09:47:31;;;;;;;13.13;6.70;;;;;;;;;;5066012;28;20107;-56
2021/12/24 09:49:57;;;;;;;7.05;5.10;;;;;;;;;;5063942;28;20032;-57
2021/12/24 09:52:23;;;;;;;7.78;5.05;;;;;;;;;;5065370;28;20491;-57
2021/12/24 09:54:50;;;;;;;7.28;4.53;;;;;;;;;;5065387;28;20069;-56
2021/12/24 09:57:17;;;;;;;5.43;3.83;;;;;;;;;;5047171;28;20035;-56
2021/12/24 09:59:43;;;;;;;6.10;3.67;;;;;;;;;;5065498;28;20151;-57
2021/12/24 10:02:14;;;;;;;8.50;3.67;;;;;;;;;;5065854;28;20519;-56
2021/12/24 10:04:41;;;;;;;6.38;4.03;;;;;;;;;;5065723;28;20111;-56
2021/12/24 10:07:10;;;;;;;5.65;3.50;;;;;;;;;;5066512;28;20037;-57
2021/12/24 10:09:40;;;;;;;7.28;4.95;;;;;;;;;;5069184;28;20086;-56
2021/12/24 10:12:06;;;;;;;7.15;4.60;;;;;;;;;;5067326;28;20029;-57
2021/12/24 10:14:33;;;;;;;7.70;5.32;;;;;;;;;;5070294;28;20025;-57
2021/12/24 10:17:00;;;;;;;8.52;4.78;;;;;;;;;;5070819;28;20383;-57
2021/12/24 10:19:26;;;;;;;9.23;5.50;;;;;;;;;;5070389;28;20016;-56
2021/12/24 10:22:03;;;;;;;9.52;5.05;;;;;;;;;;5070307;28;20032;-57
2021/12/24 10:24:30;;;;;;;10.27;6.20;;;;;;;;;;5070605;28;20025;-57
2021/12/24 10:26:58;;;;;;;7.22;5.22;;;;;;;;;;5085905;28;20106;-57
2021/12/24 10:29:32;;;;;;;10.07;5.95;;;;;;;;;;5055462;28;20107;-57
2021/12/24 10:32:00;;;;;;;10.90;6.60;;;;;;;;;;5065674;28;20115;-56
2021/12/24 10:34:26;;;;;;;12.20;6.75;;;;;;;;;;5069987;28;20733;-57
2021/12/24 10:37:02;;;;;;;15.02;6.65;;;;;;;;;;5070818;28;20047;-57
2021/12/24 10:39:57;;;;;;;13.20;7.05;;;;;;;;;;5070371;28;20400;-57
2021/12/24 10:42:26;;;;;;;10.32;6.88;;;;;;;;;;5049880;28;20040;-57
2021/12/24 10:44:53;;;;;;;11.10;7.22;;;;;;;;;;5067864;28;20066;-57
2021/12/24 10:47:25;;;;;;;15.60;6.72;;;;;;;;;;5061051;28;20069;-57
2021/12/24 10:50:13;;;;;;;8.43;5.95;;;;;;;;;;5067379;28;20112;-58
2021/12/24 10:55:21;;;;;;;10.15;7.07;;;;;;;;;;5069589;28;20177;-57
2021/12/24 10:57:49;;;;;;;9.35;6.60;;;;;;;;;;5070126;28;20028;-57
2021/12/24 11:00:18;;;;;;;12.15;7.13;;;;;;;;;;5069602;28;20032;-58
2021/12/24 11:02:44;;;;;;;10.65;6.82;;;;;;;;;;5070323;28;20029;-58
2021/12/24 11:05:23;;;;;;;10.05;6.68;;;;;;;;;;5069520;28;20428;-57
2021/12/24 11:07:49;;;;;;;9.30;6.55;;;;;;;;;;5068746;28;20435;-58
2021/12/24 11:10:18;;;;;;;11.63;6.60;;;;;;;;;;5068464;28;20039;-57
2021/12/24 11:12:49;;;;;;;12.10;7.15;;;;;;;;;;5068275;28;20419;-57
2021/12/24 11:15:17;;;;;;;9.65;6.28;;;;;;;;;;5068436;28;20028;-57
2021/12/24 11:17:43;;;;;;;11.90;7.15;;;;;;;;;;5068078;28;20028;-57
2021/12/24 11:20:10;;;;;;;11.38;6.93;;;;;;;;;;5069095;28;20051;-57
2021/12/24 11:22:58;;;;;;;13.15;7.63;;;;;;;;;;5068906;28;20033;-57
2021/12/24 11:25:26;;;;;;;15.07;7.68;;;;;;;;;;5068143;28;20020;-57
2021/12/24 11:27:54;;;;;;;23.25;14.23;;;;;;;;;;5068567;28;20106;-57
2021/12/24 11:30:21;;;;;;;21.40;13.40;;;;;;;;;;5067484;28;20218;-57
2021/12/24 11:32:49;;;;;;;16.33;10.52;;;;;;;;;;5068534;28;20036;-57
2021/12/24 11:35:17;;;;;;;16.10;9.27;;;;;;;;;;5068348;28;20104;-56
2021/12/24 11:37:44;;;;;;;14.88;8.80;;;;;;;;;;5067844;28;20162;-58
2021/12/24 11:40:12;;;;;;;11.48;7.43;;;;;;;;;;5065038;28;20036;-56
2021/12/24 11:42:40;;;;;;;12.35;7.15;;;;;;;;;;5060822;28;20520;-57
2021/12/24 11:45:06;;;;;;;13.60;6.60;;;;;;;;;;5062972;28;20522;-58
2021/12/24 11:47:34;;;;;;;12.05;6.50;;;;;;;;;;5064207;28;20085;-57
2021/12/24 11:50:00;;;;;;;12.27;6.35;;;;;;;;;;5070130;28;20115;-57
2021/12/24 11:52:27;;;;;;;10.82;5.88;;;;;;;;;;5065225;28;20363;-58
2021/12/24 11:54:58;;;;;;;10.90;6.35;;;;;;;;;;5066801;28;20576;-57
2021/12/24 11:57:25;;;;;;;10.40;5.90;;;;;;;;;;5067690;28;20024;-57
2021/12/24 11:59:52;;;;;;;7.85;5.68;;;;;;;;;;5065794;28;20028;-57
2021/12/24 12:02:37;;;;;;;9.15;5.57;;;;;;;;;;5067160;28;20525;-58
2021/12/24 12:05:26;;;;;;;10.65;5.65;;;;;;;;;;5068350;28;20032;-57
2021/12/24 12:07:52;;;;;;;11.48;6.95;;;;;;;;;;5068449;28;20066;-57
2021/12/24 12:10:44;;;;;;;10.15;5.97;;;;;;;;;;5068528;28;20123;-57
2021/12/24 12:13:29;;;;;;;12.98;6.70;;;;;;;;;;5045988;28;20056;-57
2021/12/24 12:15:56;;;;;;;;;;;;;;;;;;5068288;28;20063;-57
2021/12/24 12:18:27;;;;;;;12.30;8.20;;;;;;;;;;5067836;28;19915;-57
2021/12/24 12:21:07;;;;;;;12.98;7.57;;;;;;;;;;5067840;28;20046;-57
2021/12/24 12:23:50;;;;;;;11.98;7.43;;;;;;;;;;5065367;28;20025;-58
2021/12/24 12:26:35;;;;;;;12.55;7.50;;;;;;;;;;5068445;28;20442;-58
2021/12/24 12:29:20;;;;;;;16.25;7.20;;;;;;;;;;5067909;28;20021;-58
2021/12/24 12:31:46;;;;;;;;;;;;;;;;;;5071832;28;20488;-58
2021/12/24 12:34:30;;;;;;;11.55;6.88;;;;;;;;;;5064612;28;19913;-57
2021/12/24 12:36:56;;;;;;;;;;;;;;;;;;5067753;28;20025;-56
2021/12/24 12:39:26;;;;;;;12.30;7.60;;;;;;;;;;5066782;28;19923;-56
2021/12/24 12:41:52;;;;;;;14.32;8.23;;;;;;;;;;5067988;28;20040;-56
2021/12/24 12:44:19;;;;;;;14.50;8.57;;;;;;;;;;5066808;28;20036;-56
2021/12/24 12:46:47;;;;;;;17.70;10.90;;;;;;;;;;5067220;28;20024;-56
2021/12/24 12:49:21;;;;;;;20.65;10.35;;;;;;;;;;5067417;28;20021;-57
2021/12/24 12:52:11;;;;;;;32.35;16.30;;;;;;;;;;5064758;28;20120;-57
2021/12/24 12:54:37;;;;;;;33.65;17.50;;;;;;;;;;5064413;28;20025;-56
2021/12/24 12:57:09;;;;;;;38.20;20.02;;;;;;;;;;5068424;28;20029;-56
2021/12/24 12:59:35;;;;;;;30.00;15.10;;;;;;;;;;5067276;28;20337;-55
2021/12/24 13:02:02;;;;;;;19.42;11.30;;;;;;;;;;5068215;28;20035;-56
2021/12/24 13:04:28;;;;;;;26.30;13.63;;;;;;;;;;5067126;28;20040;-56
2021/12/24 13:06:56;;;;;;;39.08;18.55;;;;;;;;;;5066775;28;20055;-55
2021/12/24 13:09:23;;;;;;;43.65;21.75;;;;;;;;;;5067164;28;20099;-56
2021/12/24 13:11:51;;;;;;;33.03;16.25;;;;;;;;;;5067150;28;20036;-56
2021/12/24 13:14:17;;;;;;;21.05;12.55;;;;;;;;;;5067062;28;20024;-56
2021/12/24 13:16:49;;;;;;;16.70;11.40;;;;;;;;;;5066953;28;20024;-56
2021/12/24 13:19:25;;;;;;;19.73;10.55;;;;;;;;;;5067021;28;20368;-55
2021/12/24 13:24:54;;;;;;;19.10;8.90;;;;;;;;;;5066883;28;20043;-56
2021/12/24 13:27:23;;;;;;;15.13;9.88;;;;;;;;;;5061116;28;20111;-58
2021/12/24 13:29:50;;;;;;;16.42;9.88;;;;;;;;;;5066549;28;20024;-56
2021/12/24 13:32:16;;;;;;;18.58;9.45;;;;;;;;;;5064089;28;20115;-56
2021/12/24 13:34:42;;;;;;;17.73;11.38;;;;;;;;;;5048739;28;20483;-56
2021/12/24 13:37:13;;;;;;;15.75;10.48;;;;;;;;;;5066718;28;20484;-56
2021/12/24 13:39:46;;;;;;;16.95;10.85;;;;;;;;;;5066396;28;20032;-55
2021/12/24 13:42:12;;;;;;;15.73;10.27;;;;;;;;;;5066342;28;20547;-55
2021/12/24 13:44:39;;;;;;;15.23;10.02;;;;;;;;;;5066716;28;20025;-56
2021/12/24 13:47:58;;;;;;;23.40;13.57;;;;;;;;;;5066332;28;20515;-56
2021/12/24 13:55:25;;;;;;;23.70;12.82;;;;;;;;;;5061001;28;20047;-56
2021/12/24 13:57:56;;;;;;;24.65;12.40;;;;;;;;;;5066645;28;20024;-56
2021/12/24 14:00:22;;;;;;;21.33;12.25;;;;;;;;;;5066249;28;20013;-56
2021/12/24 14:02:55;;;;;;;18.15;9.93;;;;;;;;;;5066224;28;20040;-56
2021/12/24 14:05:21;;;;;;;18.00;10.27;;;;;;;;;;5066311;28;20121;-56
2021/12/24 14:08:02;;;;;;;19.45;11.43;;;;;;;;;;5066737;28;20035;-57
2021/12/24 14:10:29;;;;;;;17.90;11.13;;;;;;;;;;5066557;28;20025;-56
2021/12/24 14:13:02;;;;;;;16.65;8.88;;;;;;;;;;5066354;28;20115;-56
2021/12/24 14:15:30;;;;;;;12.95;8.85;;;;;;;;;;5066877;28;20031;-56
2021/12/24 14:20:58;;;;;;;11.48;7.72;;;;;;;;;;5086276;28;20029;-56
2021/12/24 14:23:18;;;;;;;11.75;6.88;;;;;;;;;;5046008;28;20048;-56
2021/12/24 14:25:55;;;;;;;12.43;8.25;;;;;;;;;;5046270;28;20488;-56
2021/12/24 14:28:22;;;;;;;11.52;7.60;;;;;;;;;;5053241;28;20056;-57
2021/12/24 14:30:49;;;;;;;16.63;9.43;;;;;;;;;;5065787;28;20020;-56
2021/12/24 14:33:15;;;;;;;16.52;10.23;;;;;;;;;;5063607;28;20062;-56
2021/12/24 14:35:44;;;;;;;15.80;9.18;;;;;;;;;;5062942;28;20496;-56
2021/12/24 14:38:15;;;;;;;24.90;13.60;;;;;;;;;;5061375;28;20058;-56
2021/12/24 14:40:41;;;;;;;17.95;10.75;;;;;;;;;;5077979;28;20027;-56
2021/12/24 14:43:10;;;;;;;19.02;9.88;;;;;;;;;;5073437;28;20033;-56
2021/12/24 14:45:42;;;;;;;17.77;11.07;;;;;;;;;;5067024;28;20053;-56
2021/12/24 14:48:08;;;;;;;14.27;8.55;;;;;;;;;;5070028;28;20036;-57
2021/12/24 14:50:37;;;;;;;11.10;8.13;;;;;;;;;;5066216;28;20033;-56
2021/12/24 14:53:21;;;;;;;11.70;8.80;;;;;;;;;;5061998;28;20037;-56
2021/12/24 14:55:49;;;;;;;13.23;9.10;;;;;;;;;;5048905;28;20028;-57
2021/12/24 14:58:27;;;;;;;9.55;7.18;;;;;;;;;;5068194;28;20395;-56
2021/12/24 15:00:53;;;;;;;8.38;5.85;;;;;;;;;;5084007;28;20630;-56
2021/12/24 15:03:21;;;;;;;8.15;6.07;;;;;;;;;;5067802;28;20089;-57
2021/12/24 15:05:48;;;;;;;6.80;5.13;;;;;;;;;;5069458;28;20162;-56
2021/12/24 15:08:14;;;;;;;8.23;5.00;;;;;;;;;;5069398;28;20097;-56
2021/12/24 15:10:40;;;;;;;9.20;5.18;;;;;;;;;;5069475;28;20039;-56
2021/12/24 15:13:18;;;;;;;6.32;4.60;;;;;;;;;;5069025;28;20020;-57
2021/12/24 15:15:49;;;;;;;7.53;5.05;;;;;;;;;;5071143;28;20024;-56
2021/12/24 15:18:15;;;;;;;9.20;5.05;;;;;;;;;;5073547;28;20085;-56
2021/12/24 15:20:41;;;;;;;7.93;4.72;;;;;;;;;;5081024;28;20361;-56
2021/12/24 15:23:07;;;;;;;9.30;4.93;;;;;;;;;;5068551;28;20427;-57
2021/12/24 15:25:34;;;;;;;8.23;4.28;;;;;;;;;;5069511;28;20506;-57
2021/12/24 15:28:08;;;;;;;4.82;3.67;;;;;;;;;;5068733;28;20411;-57
2021/12/24 15:30:34;;;;;;;5.65;3.90;;;;;;;;;;5068487;28;20032;-56
2021/12/24 15:33:00;;;;;;;4.38;3.45;;;;;;;;;;5067389;28;20021;-56
2021/12/24 15:35:26;;;;;;;4.30;3.50;;;;;;;;;;5068179;28;20500;-56
2021/12/24 15:37:52;;;;;;;5.45;3.38;;;;;;;;;;5065140;28;20020;-56
2021/12/24 15:40:19;;;;;;;4.15;3.08;;;;;;;;;;5080559;28;20103;-56
2021/12/24 15:42:45;;;;;;;3.90;2.78;;;;;;;;;;5066834;28;20039;-56
2021/12/24 15:45:11;;;;;;;4.30;3.08;;;;;;;;;;5068401;28;20028;-56
2021/12/24 15:47:37;;;;;;;4.20;3.17;;;;;;;;;;5067812;28;20033;-57
2021/12/24 15:50:04;;;;;;;2.60;2.40;;;;;;;;;;5067861;28;20447;-55
2021/12/24 15:52:30;;;;;;;2.97;2.00;;;;;;;;;;5067780;28;20024;-56
2021/12/24 15:54:56;;;;;;;2.95;2.30;;;;;;;;;;5048563;28;20033;-56
2021/12/24 15:57:22;;;;;;;4.35;1.88;;;;;;;;;;5058203;28;20632;-56
2021/12/24 15:59:48;;;;;;;2.88;2.13;;;;;;;;;;5068357;28;20107;-57
2021/12/24 16:02:14;;;;;;;3.28;2.00;;;;;;;;;;5068482;28;20443;-57
2021/12/24 16:04:40;;;;;;;2.75;2.05;;;;;;;;;;5067903;28;20028;-57
2021/12/24 16:07:06;;;;;;;2.95;1.98;;;;;;;;;;5049443;28;20028;-56
2021/12/24 16:09:34;;;;;;;3.25;2.25;;;;;;;;;;5066312;28;20063;-56
2021/12/24 16:12:00;;;;;;;3.13;2.35;;;;;;;;;;5066343;28;20029;-56
2021/12/24 16:14:27;;;;;;;3.20;2.22;;;;;;;;;;5064966;28;20024;-57
2021/12/24 16:16:54;;;;;;;2.85;2.08;;;;;;;;;;5070547;28;20025;-57
2021/12/24 16:19:21;;;;;;;2.92;2.28;;;;;;;;;;5062613;28;20064;-57
2021/12/24 16:21:47;;;;;;;2.70;2.20;;;;;;;;;;5066791;28;20017;-56
2021/12/24 16:24:13;;;;;;;3.70;2.28;;;;;;;;;;5047926;28;20067;-56
2021/12/24 16:26:39;;;;;;;3.10;2.38;;;;;;;;;;5064501;28;20456;-56
2021/12/24 16:29:08;;;;;;;2.85;2.28;;;;;;;;;;5066555;28;20025;-56
2021/12/24 16:31:34;;;;;;;3.28;2.22;;;;;;;;;;5060946;28;20025;-57
2021/12/24 16:34:01;;;;;;;2.33;1.92;;;;;;;;;;5065842;28;20036;-59
2021/12/24 16:36:27;;;;;;;3.22;2.30;;;;;;;;;;5065957;28;20032;-59
2021/12/24 16:38:53;;;;;;;2.90;2.33;;;;;;;;;;5063990;28;20032;-59
2021/12/24 16:41:19;;;;;;;3.90;2.10;;;;;;;;;;5065046;28;20507;-59
2021/12/24 16:43:45;;;;;;;3.33;2.20;;;;;;;;;;5065816;28;20060;-57
2021/12/24 16:46:11;;;;;;;2.50;2.08;;;;;;;;;;5065289;28;20025;-57
2021/12/24 16:48:37;;;;;;;3.42;2.50;;;;;;;;;;5064693;28;20028;-58
2021/12/24 16:51:04;;;;;;;3.22;2.05;;;;;;;;;;5065488;28;20028;-57